createdAt,value
2023-02-27T00:01:10.073Z,1
2023-02-27T00:06:26.488Z,2
2023-02-27T00:11:42.844Z,1
2023-02-27T00:16:59.222Z,1
2023-02-27T00:22:15.606Z,1
2023-02-27T00:27:31.973Z,1
2023-02-27T00:32:48.362Z,1
2023-02-27T00:38:04.781Z,1
2023-02-27T00:43:21.128Z,1
2023-02-27T00:48:37.530Z,1
2023-02-27T00:53:53.977Z,1
2023-02-27T00:59:10.249Z,1
2023-02-27T01:04:26.644Z,2
2023-02-27T01:09:43.053Z,1
2023-02-27T01:14:59.420Z,2
2023-02-27T01:20:15.787Z,1
2023-02-27T01:25:32.220Z,1
2023-02-27T01:30:48.599Z,1
2023-02-27T01:36:04.969Z,1
2023-02-27T01:41:22.094Z,1
2023-02-27T01:46:38.475Z,1
2023-02-27T01:51:54.853Z,1
2023-02-27T01:57:11.255Z,0
2023-02-27T02:02:27.720Z,1
2023-02-27T02:07:43.993Z,2
2023-02-27T02:13:00.384Z,1
2023-02-27T02:18:16.784Z,2
2023-02-27T02:23:33.147Z,1
2023-02-27T02:28:49.557Z,2
2023-02-27T02:34:05.910Z,1
2023-02-27T02:39:22.286Z,1
2023-02-27T02:44:38.686Z,1
2023-02-27T02:49:55.026Z,2
2023-02-27T02:55:11.442Z,1
2023-02-27T03:00:27.810Z,1
2023-02-27T03:05:44.184Z,2
2023-02-27T03:11:00.584Z,3
2023-02-27T03:16:16.986Z,3
2023-02-27T03:21:33.316Z,3
2023-02-27T03:26:49.730Z,2
2023-02-27T03:32:06.157Z,3
2023-02-27T03:37:22.473Z,2
2023-02-27T03:42:38.886Z,1
2023-02-27T03:47:55.259Z,2
2023-02-27T03:53:11.645Z,3
2023-02-27T03:58:28.126Z,1
2023-02-27T04:03:44.400Z,4
2023-02-27T04:09:00.813Z,4
2023-02-27T04:14:17.210Z,3
2023-02-27T04:19:33.557Z,1
2023-02-27T04:24:49.972Z,4
2023-02-27T04:30:06.343Z,3
2023-02-27T04:35:22.715Z,2
2023-02-27T04:40:39.099Z,3
2023-02-27T04:45:55.579Z,3
2023-02-27T04:51:11.856Z,3
2023-02-27T04:56:28.298Z,3
2023-02-27T05:01:45.163Z,4
2023-02-27T05:07:01.448Z,3
2023-02-27T05:12:17.864Z,4
2023-02-27T05:17:35.006Z,4
2023-02-27T05:22:51.330Z,4
2023-02-27T05:28:07.752Z,7
2023-02-27T05:34:07.387Z,6
2023-02-27T05:39:23.796Z,12
2023-02-27T05:44:40.207Z,6
2023-02-27T05:49:56.561Z,7
2023-02-27T05:55:12.983Z,4
2023-02-27T06:00:29.326Z,6
2023-02-27T06:05:45.727Z,3
2023-02-27T06:11:02.198Z,3
2023-02-27T06:16:18.618Z,3
2023-02-27T06:21:35.021Z,3
2023-02-27T06:26:51.453Z,4
2023-02-27T06:32:07.874Z,9
2023-02-27T06:37:24.209Z,8
2023-02-27T06:42:40.584Z,3
2023-02-27T06:47:56.952Z,2
2023-02-27T06:53:13.343Z,3
2023-02-27T06:58:29.747Z,3
2023-02-27T07:03:46.083Z,4
2023-02-27T07:09:07.075Z,5
2023-02-27T07:14:18.845Z,11
2023-02-27T07:19:35.243Z,7
2023-02-27T07:24:51.657Z,5
2023-02-27T07:30:08.037Z,18
2023-02-27T07:35:24.422Z,3
2023-02-27T07:40:40.816Z,4
2023-02-27T07:45:57.223Z,6
2023-02-27T07:51:13.587Z,6
2023-02-27T07:56:30.271Z,6
2023-02-27T08:01:46.332Z,9
2023-02-27T08:07:02.738Z,3
2023-02-27T08:12:19.109Z,4
2023-02-27T08:17:35.468Z,5
2023-02-27T08:22:51.843Z,2
2023-02-27T08:28:08.594Z,6
2023-02-27T08:33:24.561Z,5
2023-02-27T08:38:41.676Z,5
2023-02-27T08:43:58.047Z,7
2023-02-27T08:49:14.370Z,8
2023-02-27T08:54:30.763Z,5
2023-02-27T08:59:47.147Z,8
2023-02-27T09:05:03.639Z,6
2023-02-27T09:10:19.816Z,9
2023-02-27T09:15:36.163Z,7
2023-02-27T09:20:52.493Z,16
2023-02-27T09:26:08.882Z,8
2023-02-27T09:31:25.456Z,4
2023-02-27T09:36:41.557Z,5
2023-02-27T09:41:57.942Z,4
2023-02-27T09:47:14.298Z,5
2023-02-27T09:52:30.683Z,10
2023-02-27T09:57:47.028Z,4
2023-02-27T10:03:03.443Z,6
2023-02-27T10:08:19.709Z,4
2023-02-27T10:13:36.067Z,5
2023-02-27T10:18:52.431Z,4
2023-02-27T10:24:08.751Z,6
2023-02-27T10:29:25.115Z,5
2023-02-27T10:34:41.485Z,6
2023-02-27T10:39:57.782Z,7
2023-02-27T10:45:14.159Z,6
2023-02-27T10:50:31.192Z,5
2023-02-27T10:55:47.553Z,6
2023-02-27T11:01:03.914Z,6
2023-02-27T11:06:20.234Z,8
2023-02-27T11:11:36.574Z,8
2023-02-27T11:16:52.968Z,7
2023-02-27T11:22:09.273Z,6
2023-02-27T11:27:25.624Z,5
2023-02-27T11:32:41.986Z,6
2023-02-27T11:37:58.305Z,6
2023-02-27T11:43:14.636Z,7
2023-02-27T11:48:31.016Z,7
2023-02-27T11:53:47.291Z,7
2023-02-27T11:59:03.671Z,8
2023-02-27T12:04:20.128Z,10
2023-02-27T12:09:36.354Z,12
2023-02-27T12:14:53.301Z,9
2023-02-27T12:20:09.640Z,11
2023-02-27T12:25:25.967Z,8
2023-02-27T12:30:42.334Z,12
2023-02-27T12:35:58.883Z,8
2023-02-27T12:41:15.036Z,7
2023-02-27T12:46:31.424Z,14
2023-02-27T12:51:47.782Z,11
2023-02-27T12:57:04.145Z,12
2023-02-27T13:02:20.530Z,10
2023-02-27T13:07:36.873Z,9
2023-02-27T13:12:53.250Z,13
2023-02-27T13:18:09.641Z,9
2023-02-27T13:23:25.982Z,8
2023-02-27T13:28:42.356Z,10
2023-02-27T13:33:58.753Z,8
2023-02-27T13:39:15.085Z,11
2023-02-27T13:44:31.464Z,10
2023-02-27T13:49:47.840Z,9
2023-02-27T13:55:11.838Z,11
2023-02-27T14:00:20.576Z,13
2023-02-27T14:05:36.964Z,8
2023-02-27T14:10:53.308Z,11
2023-02-27T14:16:11.338Z,12
2023-02-27T14:21:26.439Z,12
2023-02-27T14:26:42.512Z,10
2023-02-27T14:31:58.804Z,10
2023-02-27T14:37:15.156Z,9
2023-02-27T14:42:31.567Z,9
2023-02-27T14:47:47.908Z,10
2023-02-27T14:53:04.314Z,11
2023-02-27T14:58:21.445Z,11
2023-02-27T15:03:37.862Z,17
2023-02-27T15:08:54.207Z,14
2023-02-27T15:14:10.621Z,11
2023-02-27T15:19:26.946Z,21
2023-02-27T15:24:50.002Z,13
2023-02-27T15:29:59.800Z,14
2023-02-27T15:35:16.100Z,9
2023-02-27T15:40:32.504Z,16
2023-02-27T15:45:48.858Z,12
2023-02-27T15:51:05.228Z,17
2023-02-27T15:56:21.670Z,19
2023-02-27T16:01:38.068Z,18
2023-02-27T16:06:54.456Z,11
2023-02-27T16:12:10.852Z,13
2023-02-27T16:17:27.216Z,13
2023-02-27T16:22:43.632Z,12
2023-02-27T16:28:00.034Z,14
2023-02-27T16:33:16.389Z,14
2023-02-27T16:38:32.814Z,13
2023-02-27T16:43:49.194Z,12
2023-02-27T16:49:19.168Z,13
2023-02-27T16:54:22.000Z,11
2023-02-27T16:59:38.406Z,25
2023-02-27T17:04:54.863Z,14
2023-02-27T17:10:11.258Z,13
2023-02-27T17:15:27.648Z,14
2023-02-27T17:20:44.043Z,12
2023-02-27T17:26:00.476Z,10
2023-02-27T17:31:16.804Z,15
2023-02-27T17:36:33.162Z,10
2023-02-27T17:41:49.566Z,12
2023-02-27T17:47:05.980Z,13
2023-02-27T17:52:22.360Z,14
2023-02-27T17:57:38.792Z,13
2023-02-27T18:02:55.188Z,21
2023-02-27T18:08:11.548Z,14
2023-02-27T18:13:27.979Z,12
2023-02-27T18:18:44.369Z,13
2023-02-27T18:24:00.741Z,14
2023-02-27T18:29:17.150Z,13
2023-02-27T18:34:33.531Z,14
2023-02-27T18:39:49.897Z,14
2023-02-27T18:45:06.336Z,14
2023-02-27T18:50:22.693Z,16
2023-02-27T18:55:39.103Z,16
2023-02-27T19:00:55.510Z,13
2023-02-27T19:06:11.913Z,16
2023-02-27T19:11:29.046Z,14
2023-02-27T19:16:45.457Z,15
2023-02-27T19:22:01.550Z,11
2023-02-27T19:27:17.980Z,11
2023-02-27T19:32:34.381Z,11
2023-02-27T19:37:50.741Z,15
2023-02-27T19:43:07.134Z,12
2023-02-27T19:48:23.540Z,14
2023-02-27T19:53:39.906Z,17
2023-02-27T19:58:56.285Z,10
2023-02-27T20:04:12.885Z,10
2023-02-27T20:09:29.069Z,11
2023-02-27T20:14:45.650Z,10
2023-02-27T20:20:01.887Z,13
2023-02-27T20:25:18.256Z,14
2023-02-27T20:30:34.681Z,12
2023-02-27T20:35:51.111Z,10
2023-02-27T20:41:07.433Z,15
2023-02-27T20:46:23.842Z,10
2023-02-27T20:51:40.208Z,11
2023-02-27T20:56:56.607Z,11
2023-02-27T21:02:13.025Z,15
2023-02-27T21:07:29.405Z,10
2023-02-27T21:12:45.795Z,16
2023-02-27T21:18:02.708Z,15
2023-02-27T21:23:19.094Z,14
2023-02-27T21:28:35.496Z,23
2023-02-27T21:33:51.906Z,18
2023-02-27T21:39:08.290Z,21
2023-02-27T21:44:24.691Z,20
2023-02-27T21:49:41.124Z,25
2023-02-27T21:54:57.506Z,15
2023-02-27T22:00:14.593Z,20
2023-02-27T22:05:31.031Z,18
2023-02-27T22:10:47.425Z,17
2023-02-27T22:16:03.818Z,19
2023-02-27T22:21:20.187Z,14
2023-02-27T22:26:36.649Z,14
2023-02-27T22:31:52.813Z,18
2023-02-27T22:37:09.158Z,17
2023-02-27T22:42:25.544Z,14
2023-02-27T22:47:41.931Z,17
2023-02-27T22:52:58.345Z,16
2023-02-27T22:58:14.751Z,18
2023-02-27T23:03:31.143Z,17
2023-02-27T23:08:48.124Z,19
2023-02-27T23:14:05.063Z,14
2023-02-27T23:19:21.462Z,15
2023-02-27T23:24:37.813Z,17
2023-02-27T23:29:54.220Z,15
2023-02-27T23:35:10.686Z,12
2023-02-27T23:40:27.810Z,15
2023-02-27T23:45:44.052Z,15
2023-02-27T23:51:00.359Z,14
2023-02-27T23:56:16.804Z,20
